Time;durP1;ratioP1;P1;durP2;ratioP2;P2;SDS_P1;SDS_P2;PMS_P1;PMS_P2;Temp;Humidity;BMP_temperature;BMP_pressure;BME280_temperature;BME280_humidity;BME280_pressure;Samples;Min_cycle;Max_cycle;Signal;HPM_P1;HPM_P2
2024/04/09 00:01:08;;;;;;;1.98;1.73;;;18.50;80.00;;;;;;5453459;26;19998;-62
2024/04/09 00:03:37;;;;;;;3.67;1.98;;;18.50;80.00;;;;;;5449329;26;20009;-67
2024/04/09 00:06:14;;;;;;;4.00;1.85;;;18.50;80.00;;;;;;5450094;26;19995;-67
2024/04/09 00:08:44;;;;;;;2.92;2.13;;;18.50;80.00;;;;;;5423412;26;20013;-68
2024/04/09 00:11:21;;;;;;;5.50;2.22;;;18.50;80.10;;;;;;5424878;26;19998;-68
2024/04/09 00:13:52;;;;;;;1.85;1.55;;;18.50;80.00;;;;;;5450888;26;20461;-62
2024/04/09 00:16:22;;;;;;;2.33;1.75;;;18.50;79.90;;;;;;5455700;26;20027;-62
2024/04/09 00:18:50;;;;;;;5.07;2.88;;;18.50;80.00;;;;;;5417472;26;20449;-61
2024/04/09 00:21:16;;;;;;;3.65;1.67;;;18.40;79.90;;;;;;5453041;26;20330;-62
2024/04/09 00:23:42;;;;;;;3.47;2.00;;;18.40;79.90;;;;;;5450726;26;20135;-62
2024/04/09 00:26:09;;;;;;;1.90;1.45;;;18.40;79.90;;;;;;5463237;26;20341;-62
2024/04/09 00:28:35;;;;;;;3.13;1.80;;;18.40;79.90;;;;;;5420862;26;20450;-61
2024/04/09 00:31:01;;;;;;;2.08;1.52;;;18.30;79.90;;;;;;5456614;26;20079;-61
2024/04/09 00:33:27;;;;;;;3.10;1.38;;;18.40;80.10;;;;;;5419534;26;20640;-62
2024/04/09 00:35:53;;;;;;;2.85;1.70;;;18.30;80.00;;;;;;5456048;26;19995;-62
2024/04/09 00:38:23;;;;;;;4.40;1.65;;;18.40;80.10;;;;;;5456887;26;20038;-62
2024/04/09 00:40:49;;;;;;;2.75;1.92;;;18.30;80.10;;;;;;5458572;26;20558;-62
2024/04/09 00:43:15;;;;;;;2.15;1.38;;;18.30;80.20;;;;;;5417789;26;20002;-62
2024/04/09 00:45:45;;;;;;;1.45;0.93;;;18.30;80.30;;;;;;5465305;26;20017;-67
2024/04/09 00:48:11;;;;;;;3.03;2.17;;;18.20;80.30;;;;;;5448814;26;20353;-68
2024/04/09 00:50:41;;;;;;;4.03;2.03;;;18.20;80.40;;;;;;5447397;26;20013;-67
2024/04/09 00:53:16;;;;;;;2.08;1.27;;;18.20;80.50;;;;;;5456676;26;20468;-67
2024/04/09 00:55:42;;;;;;;4.80;1.80;;;18.10;80.40;;;;;;5448597;26;20392;-67
2024/04/09 00:58:11;;;;;;;7.88;2.25;;;18.10;80.50;;;;;;5463904;26;20017;-68
2024/04/09 01:00:40;;;;;;;2.17;1.58;;;18.10;80.60;;;;;;5466484;26;20009;-67
2024/04/09 01:03:10;;;;;;;2.03;1.50;;;18.10;80.60;;;;;;5465718;26;20017;-67
2024/04/09 01:05:37;;;;;;;2.90;1.85;;;18.10;80.70;;;;;;5432307;26;20014;-67
2024/04/09 01:08:03;;;;;;;6.30;1.35;;;18.00;80.60;;;;;;5456828;26;19994;-67
2024/04/09 01:10:29;;;;;;;3.03;0.90;;;18.00;80.60;;;;;;5446720;26;19999;-67
2024/04/09 01:12:56;;;;;;;2.78;0.80;;;17.90;80.60;;;;;;5462884;26;20445;-68
2024/04/09 01:15:21;;;;;;;4.25;2.00;;;17.90;80.50;;;;;;5451530;26;20026;-67
2024/04/09 01:17:47;;;;;;;1.73;0.88;;;17.80;80.40;;;;;;5449879;26;20003;-67
2024/04/09 01:20:13;;;;;;;3.42;1.55;;;17.80;80.40;;;;;;5427135;26;20365;-67
2024/04/09 01:22:41;;;;;;;5.57;1.55;;;17.70;80.30;;;;;;5451775;26;20034;-62
2024/04/09 01:25:10;;;;;;;1.90;1.48;;;17.80;80.50;;;;;;5449766;26;19999;-67
2024/04/09 01:27:40;;;;;;;0.90;0.80;;;17.70;80.50;;;;;;5458683;26;20067;-67
2024/04/09 01:30:08;;;;;;;0.95;0.85;;;17.70;80.40;;;;;;5470901;26;19998;-63
2024/04/09 01:32:36;;;;;;;2.17;1.30;;;17.60;80.40;;;;;;5463005;26;20075;-62
2024/04/09 01:35:09;;;;;;;2.03;1.42;;;17.70;80.50;;;;;;5468850;26;20345;-62
2024/04/09 01:37:36;;;;;;;2.35;1.20;;;17.60;80.50;;;;;;5452187;26;20002;-67
2024/04/09 01:40:03;;;;;;;2.53;1.35;;;17.60;80.60;;;;;;5415979;26;20010;-68
2024/04/09 01:42:29;;;;;;;3.72;1.20;;;17.60;80.50;;;;;;5420879;26;20113;-68
2024/04/09 01:44:55;;;;;;;2.53;1.02;;;17.60;80.50;;;;;;5462431;26;19994;-67
2024/04/09 01:47:22;;;;;;;1.52;1.13;;;17.70;80.50;;;;;;5418804;26;20009;-67
2024/04/09 01:49:48;;;;;;;3.08;1.58;;;17.70;80.40;;;;;;5451268;26;19998;-67
2024/04/09 01:52:14;;;;;;;1.55;0.80;;;17.70;80.40;;;;;;5447261;26;20071;-62
2024/04/09 01:54:47;;;;;;;2.15;0.90;;;17.70;80.30;;;;;;5446945;26;19995;-67
2024/04/09 01:57:13;;;;;;;2.30;1.55;;;17.70;80.40;;;;;;5446545;26;20446;-67
2024/04/09 01:59:39;;;;;;;1.13;0.80;;;17.70;80.40;;;;;;5446931;26;19999;-62
2024/04/09 02:02:06;;;;;;;1.75;1.60;;;17.80;80.40;;;;;;5449336;26;20010;-62
2024/04/09 02:04:32;;;;;;;1.88;1.58;;;17.70;80.40;;;;;;5448424;26;19999;-62
2024/04/09 02:07:00;;;;;;;2.03;1.38;;;17.70;80.40;;;;;;5449514;26;19995;-62
2024/04/09 02:09:27;;;;;;;1.58;0.93;;;17.70;80.50;;;;;;5448036;26;19994;-62
2024/04/09 02:11:54;;;;;;;3.05;1.15;;;17.70;80.50;;;;;;5465757;26;20010;-62
2024/04/09 02:14:20;;;;;;;1.63;1.23;;;17.70;80.50;;;;;;5447950;26;20002;-62
2024/04/09 02:16:46;;;;;;;1.83;0.90;;;17.70;80.50;;;;;;5456255;26;20025;-67
2024/04/09 02:19:12;;;;;;;2.35;0.93;;;17.70;80.50;;;;;;5455581;26;19998;-62
2024/04/09 02:21:38;;;;;;;1.25;1.15;;;17.70;80.50;;;;;;5425676;26;20017;-67
2024/04/09 02:24:05;;;;;;;1.13;0.80;;;17.70;80.60;;;;;;5449196;26;20083;-62
2024/04/09 02:26:31;;;;;;;1.17;1.02;;;17.60;80.60;;;;;;5420290;26;19995;-62
2024/04/09 02:28:58;;;;;;;3.83;1.77;;;17.60;80.80;;;;;;5457970;26;19999;-62
2024/04/09 02:31:24;;;;;;;1.02;0.70;;;17.50;80.70;;;;;;5460632;26;20005;-62
2024/04/09 02:33:50;;;;;;;0.73;0.63;;;17.50;80.70;;;;;;5459660;26;20038;-62
2024/04/09 02:36:16;;;;;;;1.25;0.82;;;17.50;80.70;;;;;;5458613;26;20455;-62
2024/04/09 02:38:43;;;;;;;1.15;0.73;;;17.40;80.80;;;;;;5424400;26;20003;-62
2024/04/09 02:41:13;;;;;;;4.35;1.40;;;17.50;80.90;;;;;;5465752;26;20017;-62
2024/04/09 02:43:39;;;;;;;0.50;0.50;;;17.40;80.90;;;;;;5465702;26;19998;-62
2024/04/09 02:46:05;;;;;;;0.80;0.77;;;17.40;80.90;;;;;;5388803;26;19999;-62
2024/04/09 02:48:31;;;;;;;5.80;2.20;;;17.40;81.00;;;;;;5460359;26;20010;-62
2024/04/09 02:50:58;;;;;;;1.40;0.77;;;17.40;81.10;;;;;;5460926;26;20322;-62
2024/04/09 02:53:25;;;;;;;1.25;1.00;;;17.40;81.10;;;;;;5469561;26;20018;-62
2024/04/09 02:56:11;;;;;;;1.35;1.00;;;17.40;81.00;;;;;;5464052;26;19999;-62
2024/04/09 02:58:37;;;;;;;2.35;0.80;;;17.40;81.00;;;;;;5454860;26;20734;-62
2024/04/09 03:01:07;;;;;;;0.50;0.50;;;17.40;81.10;;;;;;5452071;26;20465;-62
2024/04/09 03:03:35;;;;;;;1.13;0.70;;;17.30;81.20;;;;;;5451744;26;19999;-62
2024/04/09 03:06:14;;;;;;;0.75;0.57;;;17.30;81.20;;;;;;5450751;26;20006;-62
2024/04/09 03:08:40;;;;;;;0.77;0.63;;;17.30;81.20;;;;;;5463219;26;19995;-62
2024/04/09 03:11:14;;;;;;;1.67;0.93;;;17.30;81.20;;;;;;5465653;26;20013;-62
2024/04/09 03:13:45;;;;;;;0.63;0.63;;;17.20;81.20;;;;;;5448269;26;20014;-63
2024/04/09 03:16:21;;;;;;;0.63;0.50;;;17.20;81.10;;;;;;5441524;26;20003;-62
2024/04/09 03:18:54;;;;;;;1.05;0.88;;;17.20;81.10;;;;;;5424552;26;20003;-66
2024/04/09 03:21:20;;;;;;;2.78;0.70;;;17.20;81.30;;;;;;5445244;26;20011;-68
2024/04/09 03:23:46;;;;;;;1.20;0.82;;;17.10;81.40;;;;;;5466950;26;20009;-67
2024/04/09 03:26:13;;;;;;;0.73;0.50;;;17.10;81.50;;;;;;5449107;26;20014;-68
2024/04/09 03:28:40;;;;;;;1.35;0.70;;;17.10;81.70;;;;;;5450066;26;19999;-68
2024/04/09 03:31:06;;;;;;;1.27;0.90;;;17.10;81.70;;;;;;5418838;26;20013;-67
2024/04/09 03:33:32;;;;;;;1.27;0.98;;;17.10;81.70;;;;;;5458520;26;20023;-68
2024/04/09 03:35:59;;;;;;;2.88;0.95;;;17.10;81.70;;;;;;5417479;26;20003;-67
2024/04/09 03:38:26;;;;;;;0.80;0.80;;;17.10;81.80;;;;;;5455374;26;20076;-67
2024/04/09 03:41:03;;;;;;;0.68;0.50;;;17.00;81.90;;;;;;5460416;26;20018;-67
2024/04/09 03:43:29;;;;;;;1.58;0.77;;;17.00;82.00;;;;;;5445573;26;20339;-68
2024/04/09 03:46:07;;;;;;;2.25;0.73;;;17.00;82.10;;;;;;5416488;26;19999;-67
2024/04/09 03:48:38;;;;;;;1.27;1.05;;;17.00;82.30;;;;;;5451530;26;20026;-62
2024/04/09 03:51:05;;;;;;;1.00;0.88;;;17.00;82.40;;;;;;5411581;26;20004;-62
2024/04/09 03:53:32;;;;;;;0.90;0.80;;;17.00;82.40;;;;;;5451331;26;20474;-62
2024/04/09 03:55:59;;;;;;;2.65;1.23;;;17.00;82.30;;;;;;5445850;26;20083;-62
2024/04/09 03:58:39;;;;;;;2.05;1.15;;;17.00;82.30;;;;;;5387944;26;20003;-62
2024/04/09 04:01:08;;;;;;;1.33;1.23;;;17.00;82.40;;;;;;5449455;26;20017;-62
2024/04/09 04:03:36;;;;;;;6.50;1.52;;;17.00;82.50;;;;;;5451216;26;20020;-62
2024/04/09 04:06:02;;;;;;;2.85;1.25;;;16.90;82.50;;;;;;5452572;26;20023;-61
2024/04/09 04:08:30;;;;;;;1.00;0.80;;;16.90;82.50;;;;;;5461588;26;20003;-68
2024/04/09 04:11:00;;;;;;;2.08;1.45;;;17.00;82.40;;;;;;5419248;26;20321;-68
2024/04/09 04:13:29;;;;;;;3.15;0.98;;;17.00;82.50;;;;;;5459734;26;20045;-67
2024/04/09 04:16:04;;;;;;;2.70;0.73;;;17.00;83.00;;;;;;5452716;26;20023;-67
2024/04/09 04:18:35;;;;;;;2.08;1.30;;;17.10;82.40;;;;;;5454489;26;20128;-67
2024/04/09 04:21:02;;;;;;;2.65;1.20;;;17.10;82.30;;;;;;5451300;26;20002;-67
2024/04/09 04:23:28;;;;;;;1.92;1.23;;;17.10;82.20;;;;;;5456195;26;19994;-62
2024/04/09 04:26:03;;;;;;;3.35;2.00;;;17.00;82.30;;;;;;5454395;26;19999;-62
2024/04/09 04:28:34;;;;;;;3.17;1.63;;;17.00;82.50;;;;;;5450096;26;20003;-61
2024/04/09 04:31:00;;;;;;;2.38;1.70;;;17.00;82.70;;;;;;5459272;26;19998;-62
2024/04/09 04:33:27;;;;;;;3.95;1.50;;;16.90;82.80;;;;;;5455023;26;20023;-62
2024/04/09 04:35:53;;;;;;;4.85;1.90;;;16.90;82.90;;;;;;5455472;26;20002;-62
2024/04/09 04:38:19;;;;;;;4.70;1.90;;;16.90;83.10;;;;;;5450522;26;20014;-61
2024/04/09 04:40:46;;;;;;;5.18;2.42;;;16.90;83.10;;;;;;5456853;26;20324;-62
2024/04/09 04:43:14;;;;;;;4.47;1.90;;;16.90;83.10;;;;;;5454427;26;20453;-62
2024/04/09 04:45:41;;;;;;;3.42;1.50;;;16.90;83.40;;;;;;5425260;26;20007;-62
2024/04/09 04:48:07;;;;;;;4.13;1.90;;;16.80;83.50;;;;;;5451446;26;20017;-62
2024/04/09 04:50:33;;;;;;;3.75;2.28;;;16.80;83.60;;;;;;5460118;26;20405;-62
2024/04/09 04:53:01;;;;;;;4.05;1.83;;;16.70;83.70;;;;;;5456345;26;20139;-62
2024/04/09 04:55:27;;;;;;;4.18;2.75;;;16.70;83.80;;;;;;5460775;26;20022;-62
2024/04/09 04:57:53;;;;;;;2.95;2.42;;;16.70;84.00;;;;;;5451892;26;20003;-62
2024/04/09 05:00:19;;;;;;;4.45;2.20;;;16.60;84.00;;;;;;5454976;26;20010;-62
2024/04/09 05:02:45;;;;;;;2.60;1.92;;;16.60;83.90;;;;;;5461705;26;20079;-62
2024/04/09 05:05:12;;;;;;;3.67;2.22;;;16.70;83.80;;;;;;5463509;26;20493;-62
2024/04/09 05:07:38;;;;;;;3.13;1.95;;;16.70;83.70;;;;;;5453056;26;20010;-63
2024/04/09 05:10:04;;;;;;;3.45;2.22;;;16.70;83.60;;;;;;5447882;26;20335;-62
2024/04/09 05:12:32;;;;;;;2.80;1.90;;;16.60;83.60;;;;;;5462124;26;20009;-62
2024/04/09 05:14:57;;;;;;;4.50;2.25;;;16.60;83.50;;;;;;5458117;26;20062;-63
2024/04/09 05:17:23;;;;;;;3.58;2.28;;;16.60;83.30;;;;;;5453384;26;20011;-63
2024/04/09 05:19:50;;;;;;;3.88;1.90;;;16.60;83.20;;;;;;5448499;26;20022;-62
2024/04/09 05:22:17;;;;;;;5.47;2.88;;;16.50;82.90;;;;;;5466465;26;20489;-62
2024/04/09 05:24:47;;;;;;;5.30;3.08;;;16.50;82.90;;;;;;5463414;26;20011;-63
2024/04/09 05:27:12;;;;;;;4.38;1.95;;;16.50;82.80;;;;;;5477873;26;20037;-62
2024/04/09 05:29:38;;;;;;;4.10;2.22;;;16.40;82.80;;;;;;5452206;26;20079;-63
2024/04/09 05:32:04;;;;;;;2.47;1.90;;;16.50;82.80;;;;;;5440410;26;19998;-62
2024/04/09 05:34:30;;;;;;;2.58;1.70;;;16.40;82.80;;;;;;5420969;26;20064;-62
2024/04/09 05:36:56;;;;;;;2.83;2.38;;;16.50;82.70;;;;;;5452894;26;20010;-62
2024/04/09 05:39:21;;;;;;;3.42;2.03;;;16.50;82.60;;;;;;5462041;26;20007;-63
2024/04/09 05:41:49;;;;;;;4.97;2.45;;;16.60;82.40;;;;;;5426454;26;20017;-62
2024/04/09 05:44:14;;;;;;;2.80;2.05;;;16.50;82.40;;;;;;5469894;26;20450;-63
2024/04/09 05:46:40;;;;;;;4.65;2.60;;;16.50;82.40;;;;;;5459305;26;20014;-62
2024/04/09 05:49:09;;;;;;;4.05;2.60;;;16.50;82.50;;;;;;5422312;26;20104;-62
2024/04/09 05:51:35;;;;;;;5.13;2.53;;;16.50;82.40;;;;;;5447667;26;20080;-63
2024/04/09 05:54:01;;;;;;;5.70;2.67;;;16.50;82.40;;;;;;5447631;26;20014;-63
2024/04/09 05:56:26;;;;;;;3.53;2.10;;;16.50;82.30;;;;;;5447387;26;20035;-63
2024/04/09 05:58:52;;;;;;;3.63;1.98;;;16.50;82.30;;;;;;5450733;26;20407;-63
2024/04/09 06:01:18;;;;;;;3.28;1.70;;;16.40;82.10;;;;;;5454761;26;20771;-63
2024/04/09 06:03:44;;;;;;;1.98;1.35;;;16.40;82.10;;;;;;5423798;26;20075;-67
2024/04/09 06:06:10;;;;;;;3.63;1.50;;;16.30;82.00;;;;;;5420619;26;20010;-67
2024/04/09 06:08:36;;;;;;;2.10;1.50;;;16.30;82.00;;;;;;5454117;26;20009;-67
2024/04/09 06:11:03;;;;;;;1.65;1.10;;;16.30;82.00;;;;;;5480250;26;20002;-68
2024/04/09 06:13:29;;;;;;;1.92;1.33;;;16.20;81.90;;;;;;5437956;26;20460;-66
2024/04/09 06:15:55;;;;;;;1.85;1.20;;;16.30;81.80;;;;;;5451755;26;20015;-62
2024/04/09 06:18:21;;;;;;;1.50;1.05;;;16.20;81.70;;;;;;5464252;26;20002;-62
2024/04/09 06:20:46;;;;;;;3.58;1.70;;;16.20;81.50;;;;;;5459356;26;20007;-66
2024/04/09 06:23:12;;;;;;;1.27;0.93;;;16.10;81.40;;;;;;5458076;26;20043;-67
2024/04/09 06:25:41;;;;;;;3.80;1.20;;;16.10;81.30;;;;;;5418310;26;20014;-66
2024/04/09 06:28:07;;;;;;;1.50;0.90;;;16.10;81.40;;;;;;5457156;26;20454;-62
2024/04/09 06:30:36;;;;;;;1.65;1.40;;;16.10;81.30;;;;;;5423048;26;20011;-62
2024/04/09 06:33:01;;;;;;;1.20;1.00;;;16.10;81.20;;;;;;5422561;26;20340;-62
2024/04/09 06:35:28;;;;;;;1.70;1.13;;;16.10;81.10;;;;;;5431758;26;20012;-62
2024/04/09 06:37:53;;;;;;;1.65;1.00;;;16.10;81.00;;;;;;5453502;26;20013;-62
2024/04/09 06:40:19;;;;;;;2.60;0.93;;;16.10;81.10;;;;;;5451638;26;20034;-66
2024/04/09 06:42:45;;;;;;;1.10;1.00;;;16.00;81.00;;;;;;5450369;26;20018;-67
2024/04/09 06:45:10;;;;;;;1.25;1.15;;;16.00;81.10;;;;;;5454417;26;19998;-67
2024/04/09 06:47:36;;;;;;;3.00;1.23;;;16.10;81.10;;;;;;5455785;26;20715;-62
2024/04/09 06:50:04;;;;;;;1.95;1.17;;;16.10;80.90;;;;;;5422945;26;20009;-67
2024/04/09 06:52:30;;;;;;;1.20;0.75;;;16.10;81.00;;;;;;5446212;26;20003;-62
2024/04/09 06:54:57;;;;;;;0.88;0.60;;;16.10;80.80;;;;;;5442312;26;19994;-62
2024/04/09 06:57:22;;;;;;;0.70;0.70;;;16.00;80.60;;;;;;5449552;26;20367;-62
2024/04/09 06:59:48;;;;;;;0.90;0.70;;;16.10;80.50;;;;;;5446718;26;20007;-67
2024/04/09 07:02:13;;;;;;;1.35;0.80;;;16.10;79.70;;;;;;5435609;26;20009;-63
2024/04/09 07:04:39;;;;;;;1.85;0.80;;;16.00;79.30;;;;;;5431785;26;20007;-62
2024/04/09 07:07:05;;;;;;;1.00;0.60;;;16.00;78.50;;;;;;5433143;26;20030;-62
2024/04/09 07:09:30;;;;;;;1.88;0.50;;;16.00;78.10;;;;;;5408336;26;20490;-62
2024/04/09 07:11:56;;;;;;;0.60;0.38;;;15.90;77.00;;;;;;5448482;26;20404;-67
2024/04/09 07:14:22;;;;;;;1.45;0.30;;;15.90;76.70;;;;;;5438386;26;20073;-62
2024/04/09 07:16:47;;;;;;;0.40;0.40;;;15.80;75.50;;;;;;5434487;26;19999;-67
2024/04/09 07:19:13;;;;;;;0.28;0.28;;;15.70;75.10;;;;;;5456568;26;20457;-68
2024/04/09 07:21:39;;;;;;;2.50;0.45;;;15.60;74.70;;;;;;5466746;26;20009;-67
2024/04/09 07:24:09;;;;;;;0.80;0.57;;;15.50;73.70;;;;;;5440837;26;20002;-63
2024/04/09 07:26:35;;;;;;;0.30;0.30;;;15.50;73.70;;;;;;5458120;26;19998;-62
2024/04/09 07:29:01;;;;;;;2.45;1.25;;;15.40;72.90;;;;;;5471220;26;20013;-63
2024/04/09 07:31:26;;;;;;;0.75;0.20;;;15.40;72.70;;;;;;5435995;26;20006;-62
2024/04/09 07:33:52;;;;;;;0.30;0.30;;;15.50;72.50;;;;;;5382760;26;19999;-63
2024/04/09 07:36:18;;;;;;;7.07;0.82;;;15.40;72.10;;;;;;5415804;26;20003;-63
2024/04/09 07:38:44;;;;;;;1.02;0.47;;;15.40;71.60;;;;;;5448308;26;20031;-68
2024/04/09 07:41:09;;;;;;;1.27;0.50;;;15.40;70.90;;;;;;5415639;26;20009;-62
2024/04/09 07:43:36;;;;;;;1.38;0.20;;;15.40;70.90;;;;;;5459867;26;20344;-62
2024/04/09 07:46:02;;;;;;;1.38;0.30;;;15.30;70.40;;;;;;5424438;26;20003;-62
2024/04/09 07:48:28;;;;;;;0.45;0.30;;;15.30;69.80;;;;;;5430814;26;20018;-63
2024/04/09 07:50:54;;;;;;;2.13;0.28;;;15.30;70.30;;;;;;5445943;26;19994;-63
2024/04/09 07:53:23;;;;;;;1.58;0.22;;;15.40;69.70;;;;;;5423216;26;20335;-62
2024/04/09 07:55:49;;;;;;;0.90;0.40;;;15.40;69.60;;;;;;5453310;26;19999;-63
2024/04/09 07:58:14;;;;;;;0.77;0.38;;;15.50;69.80;;;;;;5461471;26;20179;-68
2024/04/09 08:00:43;;;;;;;0.20;0.20;;;15.60;69.40;;;;;;5452074;26;20018;-69
2024/04/09 08:03:09;;;;;;;1.23;0.50;;;15.70;67.90;;;;;;5451359;26;19999;-63
2024/04/09 08:05:36;;;;;;;1.10;0.73;;;15.60;67.40;;;;;;5455954;26;19999;-63
2024/04/09 08:08:01;;;;;;;4.22;0.57;;;15.60;67.20;;;;;;5448399;26;20003;-62
2024/04/09 08:10:27;;;;;;;5.15;0.85;;;15.50;66.30;;;;;;5446651;26;20071;-61
2024/04/09 08:12:54;;;;;;;0.40;0.40;;;15.40;66.30;;;;;;5453790;26;20002;-62
2024/04/09 08:15:22;;;;;;;0.85;0.50;;;15.40;66.60;;;;;;5469376;26;20005;-62
2024/04/09 08:17:48;;;;;;;0.73;0.52;;;15.40;66.90;;;;;;5454903;26;20547;-63
2024/04/09 08:20:17;;;;;;;2.40;0.55;;;15.40;66.90;;;;;;5421387;26;20003;-63
2024/04/09 08:22:45;;;;;;;2.95;1.13;;;15.40;66.60;;;;;;5429163;26;20006;-63
2024/04/09 08:25:11;;;;;;;4.28;1.13;;;15.30;66.70;;;;;;5455772;26;20446;-61
2024/04/09 08:27:38;;;;;;;1.60;0.20;;;15.30;66.90;;;;;;5456991;26;20022;-63
2024/04/09 08:30:08;;;;;;;1.33;0.50;;;15.40;66.90;;;;;;5449601;26;20753;-62
2024/04/09 08:32:34;;;;;;;0.40;0.40;;;15.30;66.80;;;;;;5446411;26;20034;-67
2024/04/09 08:35:01;;;;;;;0.30;0.30;;;15.30;67.20;;;;;;5459104;26;20003;-67
2024/04/09 08:37:27;;;;;;;3.72;0.60;;;15.30;67.30;;;;;;5447775;26;20115;-67
2024/04/09 08:39:54;;;;;;;3.40;0.55;;;15.20;67.00;;;;;;5464152;26;20333;-67
2024/04/09 08:42:29;;;;;;;0.40;0.30;;;15.20;66.90;;;;;;5389033;26;20021;-67
2024/04/09 08:44:57;;;;;;;1.25;0.50;;;15.20;66.80;;;;;;5459752;26;19994;-67
2024/04/09 08:47:24;;;;;;;0.85;0.40;;;15.30;66.80;;;;;;5468427;26;20038;-68
2024/04/09 08:49:51;;;;;;;0.22;0.20;;;15.30;66.70;;;;;;5453131;26;20011;-69
2024/04/09 08:52:22;;;;;;;1.15;0.40;;;15.40;67.00;;;;;;5397923;26;20005;-69
2024/04/09 08:54:48;;;;;;;5.05;1.08;;;15.60;67.10;;;;;;5409982;26;20002;-68
2024/04/09 08:57:14;;;;;;;0.57;0.30;;;15.70;66.70;;;;;;5449439;26;20022;-69
2024/04/09 08:59:40;;;;;;;1.27;0.40;;;15.70;65.70;;;;;;5450989;26;20477;-68
2024/04/09 09:02:24;;;;;;;1.35;0.40;;;15.70;65.70;;;;;;5434130;26;20030;-68
2024/04/09 09:04:51;;;;;;;3.42;0.50;;;15.60;65.80;;;;;;5446000;26;20010;-68
2024/04/09 09:07:22;;;;;;;1.45;0.45;;;15.60;65.80;;;;;;5446945;26;20003;-67
2024/04/09 09:09:48;;;;;;;3.03;0.50;;;15.60;65.50;;;;;;5445318;26;20384;-68
2024/04/09 09:12:15;;;;;;;1.38;0.50;;;15.60;64.90;;;;;;5417903;26;20031;-68
2024/04/09 09:14:54;;;;;;;3.72;0.65;;;15.60;64.60;;;;;;5448803;26;20404;-67
2024/04/09 09:17:20;;;;;;;1.13;0.40;;;15.60;64.20;;;;;;5446613;26;20039;-67
2024/04/09 09:19:55;;;;;;;0.30;0.25;;;15.70;64.30;;;;;;5449983;26;20010;-67
2024/04/09 09:22:22;;;;;;;1.13;0.38;;;15.60;63.40;;;;;;5448918;26;20013;-67
2024/04/09 09:24:56;;;;;;;1.48;0.40;;;15.60;63.60;;;;;;5452927;26;19999;-68
2024/04/09 09:27:24;;;;;;;1.38;0.50;;;15.60;63.40;;;;;;5442748;26;20076;-68
2024/04/09 09:29:56;;;;;;;3.13;0.55;;;15.60;63.80;;;;;;5411725;26;20353;-68
2024/04/09 09:32:23;;;;;;;3.33;0.43;;;15.60;62.80;;;;;;5407423;26;19998;-68
2024/04/09 09:34:51;;;;;;;1.10;0.47;;;15.60;62.50;;;;;;5439705;26;20026;-62
2024/04/09 09:37:17;;;;;;;0.68;0.40;;;15.60;62.30;;;;;;5445735;26;20349;-67
2024/04/09 09:39:43;;;;;;;1.15;0.40;;;15.80;61.40;;;;;;5431809;26;20434;-68
2024/04/09 09:42:12;;;;;;;0.30;0.30;;;16.00;62.20;;;;;;5413648;26;20005;-67
2024/04/09 09:44:39;;;;;;;0.82;0.50;;;16.30;61.80;;;;;;5435155;26;20003;-68
2024/04/09 09:47:07;;;;;;;0.35;0.35;;;16.60;60.20;;;;;;5443775;26;19995;-68
2024/04/09 09:49:34;;;;;;;2.88;0.40;;;16.70;59.80;;;;;;5437884;26;20079;-67
2024/04/09 09:52:02;;;;;;;1.42;0.47;;;16.80;58.70;;;;;;5451440;26;20451;-68
2024/04/09 09:54:28;;;;;;;4.28;1.27;;;16.80;58.70;;;;;;5448299;26;19994;-67
2024/04/09 09:57:18;;;;;;;0.63;0.40;;;16.90;59.20;;;;;;5450705;26;20010;-68
2024/04/09 09:59:49;;;;;;;0.55;0.28;;;16.90;58.60;;;;;;5414970;26;20054;-67
2024/04/09 10:02:17;;;;;;;1.38;0.75;;;16.70;58.80;;;;;;5449187;26;20007;-68
2024/04/09 10:04:44;;;;;;;1.95;0.43;;;16.50;58.40;;;;;;5448058;26;19999;-67
2024/04/09 10:07:11;;;;;;;2.15;0.60;;;16.50;58.70;;;;;;5446126;26;20013;-67
2024/04/09 10:09:43;;;;;;;0.45;0.45;;;16.50;57.80;;;;;;5419500;26;20377;-67
2024/04/09 10:12:40;;;;;;;0.30;0.20;;;16.40;58.20;;;;;;5447992;26;20075;-68
2024/04/09 10:15:11;;;;;;;0.30;0.30;;;16.30;57.90;;;;;;5422197;26;20071;-67
2024/04/09 10:17:54;;;;;;;2.17;1.15;;;16.30;58.10;;;;;;5449836;26;20003;-68
2024/04/09 10:20:31;;;;;;;2.17;0.40;;;16.50;58.10;;;;;;5445705;26;20002;-67
2024/04/09 10:23:01;;;;;;;0.40;0.22;;;16.50;57.40;;;;;;5443297;26;20069;-62
2024/04/09 10:25:35;;;;;;;0.93;0.47;;;16.40;58.00;;;;;;5413156;26;20425;-62
2024/04/09 10:28:02;;;;;;;0.50;0.35;;;16.30;57.90;;;;;;5417477;26;20011;-62
2024/04/09 10:30:31;;;;;;;0.68;0.25;;;16.10;57.80;;;;;;5436218;26;20358;-62
2024/04/09 10:33:00;;;;;;;2.53;0.30;;;16.00;58.10;;;;;;5441060;26;19999;-62
2024/04/09 10:35:25;;;;;;;8.82;0.85;;;16.00;57.80;;;;;;5442119;26;19995;-62
2024/04/09 10:37:55;;;;;;;0.88;0.40;;;16.00;58.10;;;;;;5404350;26;20013;-62
2024/04/09 10:40:22;;;;;;;0.63;0.30;;;16.00;58.40;;;;;;5441215;26;20377;-64
2024/04/09 10:42:48;;;;;;;2.63;0.47;;;16.30;57.50;;;;;;5406670;26;20017;-62
2024/04/09 10:45:15;;;;;;;1.17;0.40;;;16.40;56.60;;;;;;5405475;26;20003;-63
2024/04/09 10:47:43;;;;;;;1.33;0.77;;;16.40;56.50;;;;;;5410695;26;20001;-63
2024/04/09 10:50:09;;;;;;;0.65;0.30;;;16.40;56.40;;;;;;5443085;26;20097;-62
2024/04/09 10:52:36;;;;;;;1.35;0.35;;;16.50;56.30;;;;;;5415658;26;20006;-67
2024/04/09 10:55:12;;;;;;;0.75;0.32;;;16.50;56.00;;;;;;5419863;26;19998;-68
2024/04/09 10:57:39;;;;;;;0.20;0.20;;;16.60;55.80;;;;;;5449154;26;19999;-68
2024/04/09 11:00:12;;;;;;;1.98;0.30;;;16.50;55.30;;;;;;5448386;26;20083;-68
2024/04/09 11:02:40;;;;;;;0.30;0.30;;;16.60;55.60;;;;;;5441040;26;20331;-68
2024/04/09 11:05:09;;;;;;;1.50;0.47;;;16.50;55.20;;;;;;5448551;26;20010;-69
2024/04/09 11:07:39;;;;;;;3.53;0.50;;;16.30;56.00;;;;;;5413185;26;20430;-68
2024/04/09 11:10:07;;;;;;;0.20;0.20;;;16.30;55.80;;;;;;5415353;26;20013;-68
2024/04/09 11:12:36;;;;;;;1.10;0.30;;;16.10;55.90;;;;;;5446751;26;20700;-68
2024/04/09 11:15:03;;;;;;;3.38;0.47;;;16.00;55.70;;;;;;5442284;26;20013;-68
2024/04/09 11:17:29;;;;;;;0.52;0.25;;;15.90;56.00;;;;;;5416856;26;20002;-68
2024/04/09 11:20:11;;;;;;;0.20;0.20;;;15.90;56.10;;;;;;5449821;26;20063;-67
2024/04/09 11:22:41;;;;;;;1.95;0.30;;;15.90;56.10;;;;;;5447085;26;20014;-68
2024/04/09 11:25:15;;;;;;;1.30;0.20;;;15.90;56.20;;;;;;5447815;26;19999;-67
2024/04/09 11:27:43;;;;;;;1.65;0.45;;;16.10;56.30;;;;;;5453916;26;19998;-62
2024/04/09 11:30:11;;;;;;;3.55;0.25;;;16.20;56.00;;;;;;5451670;26;20003;-63
2024/04/09 11:32:40;;;;;;;1.58;0.22;;;16.20;56.20;;;;;;5453019;26;20010;-63
2024/04/09 11:35:20;;;;;;;0.20;0.20;;;16.10;55.80;;;;;;5448520;26;20449;-67
2024/04/09 11:37:59;;;;;;;0.22;0.22;;;16.10;55.50;;;;;;5452523;26;20088;-68
2024/04/09 11:40:29;;;;;;;0.20;0.20;;;16.10;55.90;;;;;;5453774;26;20347;-68
2024/04/09 11:42:56;;;;;;;0.70;0.70;;;16.10;56.00;;;;;;5419553;26;20010;-68
2024/04/09 11:45:29;;;;;;;0.35;0.35;;;16.10;56.40;;;;;;5448924;26;20850;-68
2024/04/09 11:47:58;;;;;;;0.10;0.10;;;16.10;55.70;;;;;;5451559;26;20007;-68
2024/04/09 11:50:24;;;;;;;0.28;0.20;;;16.30;56.30;;;;;;5457990;26;19998;-68
2024/04/09 11:52:50;;;;;;;1.60;0.45;;;16.50;56.30;;;;;;5422829;26;20009;-69
2024/04/09 11:55:16;;;;;;;2.35;0.63;;;16.60;56.00;;;;;;5448031;26;20007;-68
2024/04/09 11:57:43;;;;;;;0.93;0.30;;;16.80;55.80;;;;;;5415498;26;20020;-63
2024/04/09 12:00:12;;;;;;;3.13;0.50;;;17.00;55.00;;;;;;5446023;26;20333;-63
2024/04/09 12:02:43;;;;;;;0.20;0.20;;;17.00;54.10;;;;;;5447297;26;20003;-68
2024/04/09 12:05:10;;;;;;;0.35;0.28;;;16.90;53.60;;;;;;5442073;26;20438;-68
2024/04/09 12:07:36;;;;;;;1.27;0.45;;;16.70;53.70;;;;;;5446250;26;20006;-68
2024/04/09 12:10:02;;;;;;;1.55;0.40;;;16.50;53.50;;;;;;5445949;26;20661;-68
2024/04/09 12:12:28;;;;;;;2.63;0.50;;;16.40;54.10;;;;;;5419512;26;20010;-68
2024/04/09 12:14:53;;;;;;;1.65;0.65;;;16.30;54.20;;;;;;5441847;26;20468;-68
2024/04/09 12:17:19;;;;;;;2.42;1.02;;;16.20;54.50;;;;;;5450075;26;20288;-69
2024/04/09 12:19:44;;;;;;;0.28;0.20;;;16.10;54.90;;;;;;5446895;26;20075;-67
2024/04/09 12:22:14;;;;;;;1.35;0.20;;;16.20;55.20;;;;;;5450090;26;20003;-69
2024/04/09 12:24:40;;;;;;;0.38;0.25;;;16.30;54.80;;;;;;5448610;26;19999;-69
2024/04/09 12:27:06;;;;;;;0.20;0.20;;;16.20;54.20;;;;;;5387394;26;20326;-68
2024/04/09 12:29:32;;;;;;;0.30;0.30;;;16.20;54.50;;;;;;5449990;26;20021;-68
2024/04/09 12:31:59;;;;;;;1.45;0.40;;;16.10;54.30;;;;;;5420577;26;20009;-68
2024/04/09 12:34:27;;;;;;;0.65;0.20;;;16.00;54.20;;;;;;5449426;26;20446;-69
2024/04/09 12:36:53;;;;;;;0.40;0.30;;;15.90;54.40;;;;;;5445941;26;19994;-70
2024/04/09 12:39:19;;;;;;;1.63;0.63;;;15.80;54.40;;;;;;5447300;26;20390;-69
2024/04/09 12:41:45;;;;;;;1.48;0.20;;;15.80;54.60;;;;;;5451703;26;19998;-69
2024/04/09 12:44:10;;;;;;;2.20;0.30;;;15.80;54.80;;;;;;5447638;26;20528;-69
2024/04/09 12:46:36;;;;;;;0.20;0.20;;;15.80;55.00;;;;;;5449334;26;19994;-63
2024/04/09 12:49:02;;;;;;;1.48;0.22;;;15.80;55.00;;;;;;5448038;26;20350;-63
2024/04/09 12:51:29;;;;;;;0.20;0.20;;;15.80;55.00;;;;;;5448619;26;19995;-63